Time;durP1;ratioP1;P1;durP2;ratioP2;P2;SDS_P1;SDS_P2;PMS_P1;PMS_P2;Temp;Humidity;BMP_temperature;BMP_pressure;BME280_temperature;BME280_humidity;BME280_pressure;Samples;Min_cycle;Max_cycle;Signal;HPM_P1;HPM_P2
2023/01/26 00:00:58;;;;;;;14.00;1.73;;;;;;;;;;6151336;23;20051;-63
2023/01/26 00:03:31;;;;;;;18.50;2.07;;;;;;;;;;6153274;23;20017;-63
2023/01/26 00:06:02;;;;;;;13.93;1.65;;;;;;;;;;6132985;23;20418;-63
2023/01/26 00:08:30;;;;;;;14.50;1.85;;;;;;;;;;6143381;23;20017;-63
2023/01/26 00:11:02;;;;;;;22.42;1.90;;;;;;;;;;6123697;23;20352;-63
2023/01/26 00:13:30;;;;;;;14.45;1.92;;;;;;;;;;6146038;23;20017;-62
2023/01/26 00:15:58;;;;;;;15.37;1.30;;;;;;;;;;6141218;23;20373;-63
2023/01/26 00:18:25;;;;;;;15.55;2.15;;;;;;;;;;6152976;23;20017;-62
2023/01/26 00:20:57;;;;;;;10.80;1.38;;;;;;;;;;6140163;23;20087;-62
2023/01/26 00:23:25;;;;;;;9.77;1.63;;;;;;;;;;6150643;23;20021;-62
2023/01/26 00:25:52;;;;;;;14.15;1.50;;;;;;;;;;6139405;23;20496;-63
2023/01/26 00:28:20;;;;;;;13.77;1.70;;;;;;;;;;6147951;23;20067;-63
2023/01/26 00:30:48;;;;;;;14.15;1.30;;;;;;;;;;6141481;23;20021;-62
2023/01/26 00:33:20;;;;;;;16.08;1.60;;;;;;;;;;6145479;23;20048;-64
2023/01/26 00:35:53;;;;;;;13.10;2.03;;;;;;;;;;6153418;23;20037;-62
2023/01/26 00:38:23;;;;;;;10.77;1.50;;;;;;;;;;6136306;23;20017;-63
2023/01/26 00:40:51;;;;;;;10.53;1.03;;;;;;;;;;6152914;23;20017;-63
2023/01/26 00:43:19;;;;;;;12.52;1.05;;;;;;;;;;6143403;23;20493;-62
2023/01/26 00:45:47;;;;;;;7.30;0.90;;;;;;;;;;6151577;23;20021;-62
2023/01/26 00:48:15;;;;;;;16.00;1.30;;;;;;;;;;6135497;23;20496;-62
2023/01/26 00:50:43;;;;;;;20.55;1.60;;;;;;;;;;6154225;23;20017;-62
2023/01/26 00:53:11;;;;;;;10.03;1.03;;;;;;;;;;6139120;23;20277;-63
2023/01/26 00:55:40;;;;;;;11.38;1.17;;;;;;;;;;6125649;23;20032;-62
2023/01/26 00:58:08;;;;;;;16.08;1.27;;;;;;;;;;6085905;23;20419;-63
2023/01/26 01:00:36;;;;;;;8.95;1.05;;;;;;;;;;6120178;23;20048;-63
2023/01/26 01:03:05;;;;;;;10.82;0.98;;;;;;;;;;6120465;23;20116;-62
2023/01/26 01:05:33;;;;;;;9.57;1.13;;;;;;;;;;6127655;23;20017;-60
2023/01/26 01:08:00;;;;;;;11.20;1.23;;;;;;;;;;6119194;23;20041;-63
2023/01/26 01:10:28;;;;;;;10.52;1.27;;;;;;;;;;6130004;23;20041;-62
2023/01/26 01:12:57;;;;;;;14.10;0.98;;;;;;;;;;6115225;23;20053;-62
2023/01/26 01:15:25;;;;;;;18.80;1.20;;;;;;;;;;6122203;23;20464;-62
2023/01/26 01:17:53;;;;;;;13.87;0.90;;;;;;;;;;6108594;23;20052;-62
2023/01/26 01:20:21;;;;;;;9.45;0.88;;;;;;;;;;6126791;23;20017;-62
2023/01/26 01:22:50;;;;;;;12.32;1.00;;;;;;;;;;6121832;23;20017;-62
2023/01/26 01:25:18;;;;;;;11.48;1.70;;;;;;;;;;6129668;23;20464;-62
2023/01/26 01:27:46;;;;;;;11.63;1.42;;;;;;;;;;6120307;23;20069;-62
2023/01/26 01:30:15;;;;;;;10.33;1.60;;;;;;;;;;6126469;23;20233;-62
2023/01/26 01:32:44;;;;;;;10.52;1.25;;;;;;;;;;6130603;23;20018;-64
2023/01/26 01:35:12;;;;;;;15.88;1.42;;;;;;;;;;6124011;23;20457;-60
2023/01/26 01:37:40;;;;;;;7.80;1.10;;;;;;;;;;6125502;23;20811;-62
2023/01/26 01:40:11;;;;;;;10.07;1.15;;;;;;;;;;6097191;23;20072;-62
2023/01/26 01:42:45;;;;;;;13.40;1.13;;;;;;;;;;6097435;23;20044;-62
2023/01/26 01:45:36;;;;;;;6.43;1.25;;;;;;;;;;6091707;23;20541;-63
2023/01/26 01:48:05;;;;;;;8.25;0.75;;;;;;;;;;6120056;23;20486;-62
2023/01/26 01:50:35;;;;;;;10.60;1.10;;;;;;;;;;6118085;23;20433;-62
2023/01/26 01:53:03;;;;;;;12.82;1.15;;;;;;;;;;6088947;23;20402;-62
2023/01/26 01:55:31;;;;;;;16.00;1.53;;;;;;;;;;6159107;23;20024;-62
2023/01/26 01:58:01;;;;;;;13.30;0.90;;;;;;;;;;6147436;23;20024;-62
2023/01/26 02:00:29;;;;;;;13.60;1.70;;;;;;;;;;6154461;23;20024;-63
2023/01/26 02:03:13;;;;;;;12.15;1.15;;;;;;;;;;6139937;23;20447;-63
2023/01/26 02:05:45;;;;;;;19.25;0.90;;;;;;;;;;6159145;23;20028;-63
2023/01/26 02:08:14;;;;;;;12.57;1.10;;;;;;;;;;6145305;23;20052;-63
2023/01/26 02:10:45;;;;;;;12.32;1.23;;;;;;;;;;6155400;23;20092;-65
2023/01/26 02:13:13;;;;;;;11.10;0.90;;;;;;;;;;6159222;23;20072;-63
2023/01/26 02:15:41;;;;;;;15.63;1.15;;;;;;;;;;6145568;23;20052;-63
2023/01/26 02:18:11;;;;;;;9.95;1.52;;;;;;;;;;6155883;23;20075;-64
2023/01/26 02:20:43;;;;;;;8.73;0.87;;;;;;;;;;6152838;23;20523;-62
2023/01/26 02:23:18;;;;;;;5.93;0.50;;;;;;;;;;6153606;23;20530;-63
2023/01/26 02:25:51;;;;;;;17.50;1.17;;;;;;;;;;6148854;23;20103;-62
2023/01/26 02:28:21;;;;;;;12.40;1.15;;;;;;;;;;6156388;23;20017;-63
2023/01/26 02:30:55;;;;;;;9.23;1.00;;;;;;;;;;6153711;23;20112;-64
2023/01/26 02:33:24;;;;;;;15.63;1.30;;;;;;;;;;6141606;23;20024;-64
2023/01/26 02:35:52;;;;;;;14.27;1.20;;;;;;;;;;6160973;23;20021;-62
2023/01/26 02:38:21;;;;;;;10.88;0.98;;;;;;;;;;6154059;23;20047;-62
2023/01/26 02:40:53;;;;;;;10.00;0.73;;;;;;;;;;6149769;23;20654;-62
2023/01/26 02:43:22;;;;;;;8.98;1.42;;;;;;;;;;6156069;23;20400;-62
2023/01/26 02:45:50;;;;;;;8.40;0.93;;;;;;;;;;6152543;23;20040;-62
2023/01/26 02:49:45;;;;;;;14.98;1.65;;;;;;;;;;6153108;23;20086;-63
2023/01/26 02:51:05;;;;;;;6.57;1.02;;;;;;;;;;6139648;23;20366;-62
2023/01/26 02:53:33;;;;;;;16.48;1.65;;;;;;;;;;6152056;23;20055;-61
2023/01/26 02:56:00;;;;;;;15.48;1.25;;;;;;;;;;6156931;23;20017;-62
2023/01/26 02:58:29;;;;;;;13.93;1.67;;;;;;;;;;6154746;23;20040;-62
2023/01/26 03:00:57;;;;;;;18.25;1.38;;;;;;;;;;6141858;23;20044;-62
2023/01/26 03:03:40;;;;;;;17.10;1.90;;;;;;;;;;6157549;23;20096;-62
2023/01/26 03:06:09;;;;;;;9.90;1.40;;;;;;;;;;6131402;23;20090;-63
2023/01/26 03:08:37;;;;;;;14.93;1.25;;;;;;;;;;6161020;23;20109;-62
2023/01/26 03:11:06;;;;;;;14.53;1.37;;;;;;;;;;6152430;23;20490;-62
2023/01/26 03:13:35;;;;;;;13.15;1.25;;;;;;;;;;6132023;23;20067;-62
2023/01/26 03:16:06;;;;;;;10.35;1.30;;;;;;;;;;6155965;23;20020;-64
2023/01/26 03:29:39;;;;;;;15.93;1.33;;;;;;;;;;6143263;23;20048;-62
2023/01/26 03:32:06;;;;;;;15.25;1.77;;;;;;;;;;6154935;23;20009;-62
2023/01/26 03:34:34;;;;;;;22.02;1.60;;;;;;;;;;6150714;23;20075;-63
2023/01/26 03:37:01;;;;;;;19.53;1.50;;;;;;;;;;6155343;23;20041;-62
2023/01/26 03:56:20;;;;;;;16.75;2.45;;;;;;;;;;6151151;23;20013;-64
2023/01/26 03:58:49;;;;;;;17.98;2.33;;;;;;;;;;6154139;23;20064;-62
2023/01/26 04:01:19;;;;;;;14.02;2.60;;;;;;;;;;6156105;23;20028;-62
2023/01/26 04:09:19;;;;;;;24.42;3.28;;;;;;;;;;6149229;23;20595;-62
2023/01/26 04:11:47;;;;;;;17.92;2.50;;;;;;;;;;6153257;23;20088;-62
2023/01/26 04:22:48;;;;;;;17.98;2.72;;;;;;;;;;6157969;23;20036;-62
2023/01/26 04:25:17;;;;;;;13.60;2.53;;;;;;;;;;6148197;23;20515;-63
2023/01/26 04:27:45;;;;;;;14.73;2.58;;;;;;;;;;6149742;23;20035;-63
2023/01/26 04:30:14;;;;;;;19.83;3.83;;;;;;;;;;6162581;23;20532;-64
2023/01/26 04:32:44;;;;;;;14.10;3.17;;;;;;;;;;6152590;23;20021;-63
2023/01/26 04:35:12;;;;;;;13.68;3.30;;;;;;;;;;6154046;23;20334;-65
2023/01/26 04:37:40;;;;;;;18.20;2.75;;;;;;;;;;6147089;23;20021;-63
2023/01/26 04:40:08;;;;;;;17.63;2.63;;;;;;;;;;6153921;23;20013;-63
2023/01/26 04:42:36;;;;;;;12.23;2.90;;;;;;;;;;6131444;23;20025;-62
2023/01/26 04:45:04;;;;;;;11.73;2.35;;;;;;;;;;6124458;23;20103;-62
2023/01/26 04:47:32;;;;;;;13.98;2.58;;;;;;;;;;6153150;23;20100;-57
2023/01/26 04:50:01;;;;;;;17.95;3.03;;;;;;;;;;6149538;23;20028;-62
2023/01/26 04:52:29;;;;;;;19.48;2.72;;;;;;;;;;6151682;23;20225;-62
2023/01/26 04:54:56;;;;;;;13.47;2.57;;;;;;;;;;6134780;23;20025;-62
2023/01/26 04:57:24;;;;;;;13.57;2.85;;;;;;;;;;6152564;23;20051;-62
2023/01/26 04:59:52;;;;;;;17.77;2.63;;;;;;;;;;6148533;23;20032;-62
2023/01/26 05:02:20;;;;;;;14.60;2.50;;;;;;;;;;6156820;23;20017;-62
2023/01/26 05:04:48;;;;;;;14.38;3.30;;;;;;;;;;6146330;23;20025;-62
2023/01/26 05:07:17;;;;;;;16.67;3.17;;;;;;;;;;6154362;23;20041;-62
2023/01/26 05:09:44;;;;;;;14.48;2.70;;;;;;;;;;6147884;23;20289;-62
2023/01/26 05:14:57;;;;;;;14.93;2.75;;;;;;;;;;6144769;23;20096;-62
2023/01/26 05:17:25;;;;;;;19.33;2.47;;;;;;;;;;6155733;23;20017;-63
2023/01/26 05:19:52;;;;;;;11.47;2.53;;;;;;;;;;6146997;23;20082;-63
2023/01/26 05:22:22;;;;;;;15.75;2.65;;;;;;;;;;6141389;23;20092;-62
2023/01/26 05:24:49;;;;;;;21.08;3.08;;;;;;;;;;6177733;23;20021;-63
2023/01/26 05:27:23;;;;;;;13.98;2.70;;;;;;;;;;6144108;23;20352;-62
2023/01/26 05:29:52;;;;;;;14.82;2.38;;;;;;;;;;6151646;23;20022;-62
2023/01/26 05:32:20;;;;;;;15.40;3.33;;;;;;;;;;6146019;23;20027;-62
2023/01/26 05:34:48;;;;;;;14.38;2.40;;;;;;;;;;6156793;23;20360;-62
2023/01/26 05:37:16;;;;;;;10.95;1.95;;;;;;;;;;6147397;23;20013;-62
2023/01/26 05:39:45;;;;;;;11.48;2.63;;;;;;;;;;6154751;23;20516;-62
2023/01/26 05:42:13;;;;;;;11.18;1.90;;;;;;;;;;6142621;23;20083;-61
2023/01/26 05:44:44;;;;;;;14.37;2.40;;;;;;;;;;6156437;23;20095;-63
2023/01/26 05:47:12;;;;;;;13.55;2.40;;;;;;;;;;6158708;23;20510;-54
2023/01/26 05:49:41;;;;;;;11.27;2.13;;;;;;;;;;6155158;23;20490;-63
2023/01/26 05:52:10;;;;;;;14.52;1.77;;;;;;;;;;6142248;23;20040;-63
2023/01/26 05:54:37;;;;;;;12.77;1.50;;;;;;;;;;6145387;23;20059;-63
2023/01/26 05:57:07;;;;;;;12.13;2.37;;;;;;;;;;6156612;23;20064;-63
2023/01/26 05:59:34;;;;;;;12.55;1.65;;;;;;;;;;6157392;23;20085;-63
2023/01/26 06:02:02;;;;;;;9.27;1.80;;;;;;;;;;6141905;23;20013;-62
2023/01/26 06:04:30;;;;;;;12.15;1.77;;;;;;;;;;6160438;23;20025;-63
2023/01/26 06:06:59;;;;;;;13.63;2.13;;;;;;;;;;6153485;23;20024;-63
2023/01/26 06:09:26;;;;;;;9.73;1.43;;;;;;;;;;6157658;23;20021;-63
2023/01/26 06:11:54;;;;;;;12.55;2.17;;;;;;;;;;6135077;23;20460;-63
2023/01/26 06:14:23;;;;;;;9.85;1.63;;;;;;;;;;6151648;23;20013;-62
2023/01/26 06:16:53;;;;;;;7.10;1.50;;;;;;;;;;6152949;23;20085;-63
2023/01/26 06:19:20;;;;;;;15.95;2.13;;;;;;;;;;6158085;23;20220;-63
2023/01/26 06:21:48;;;;;;;8.90;1.97;;;;;;;;;;6157121;23;20470;-63
2023/01/26 06:24:16;;;;;;;9.13;1.90;;;;;;;;;;6146141;23;20071;-63
2023/01/26 06:26:44;;;;;;;16.42;2.10;;;;;;;;;;6164182;23;20471;-63
2023/01/26 06:29:12;;;;;;;14.63;1.77;;;;;;;;;;6146498;23;20033;-62
2023/01/26 06:31:45;;;;;;;11.00;1.50;;;;;;;;;;6156959;23;20044;-63
2023/01/26 06:34:15;;;;;;;11.93;1.67;;;;;;;;;;6156720;23;20021;-62
2023/01/26 06:36:42;;;;;;;12.52;1.75;;;;;;;;;;6148474;23;20009;-62
2023/01/26 06:39:11;;;;;;;12.05;1.98;;;;;;;;;;6155282;23;20009;-62
2023/01/26 06:41:39;;;;;;;9.18;1.73;;;;;;;;;;6148794;23;20020;-64
2023/01/26 06:44:08;;;;;;;15.00;2.10;;;;;;;;;;6155962;23;20830;-62
2023/01/26 06:46:36;;;;;;;11.37;1.77;;;;;;;;;;6149562;23;20104;-63
2023/01/26 06:49:05;;;;;;;9.02;2.05;;;;;;;;;;6155154;23;20077;-62
2023/01/26 06:51:42;;;;;;;13.82;1.80;;;;;;;;;;6154119;23;20024;-60
2023/01/26 06:54:11;;;;;;;14.38;1.80;;;;;;;;;;6148611;23;20040;-64
2023/01/26 06:56:40;;;;;;;10.02;2.30;;;;;;;;;;6155939;23;20016;-62
2023/01/26 06:59:09;;;;;;;11.67;2.00;;;;;;;;;;6154275;23;20017;-63
2023/01/26 07:01:39;;;;;;;11.20;1.77;;;;;;;;;;6153818;23;20032;-64
2023/01/26 07:04:08;;;;;;;12.20;2.30;;;;;;;;;;6137743;23;20451;-64
2023/01/26 07:06:36;;;;;;;9.95;1.88;;;;;;;;;;6156911;23;20016;-64
2023/01/26 07:09:07;;;;;;;13.45;2.00;;;;;;;;;;6149760;23;20024;-65
2023/01/26 07:11:35;;;;;;;14.60;1.67;;;;;;;;;;6146159;23;20033;-64
2023/01/26 07:14:03;;;;;;;15.27;2.08;;;;;;;;;;6146148;23;20017;-64
2023/01/26 07:16:31;;;;;;;9.48;1.85;;;;;;;;;;6152719;23;20570;-65
2023/01/26 07:19:00;;;;;;;15.80;1.98;;;;;;;;;;6155173;23;20017;-64
2023/01/26 07:21:29;;;;;;;12.30;2.00;;;;;;;;;;6153225;23;20096;-64
2023/01/26 07:23:57;;;;;;;9.73;1.90;;;;;;;;;;6146991;23;20036;-63
2023/01/26 07:26:24;;;;;;;14.82;2.40;;;;;;;;;;6158875;23;20112;-63
2023/01/26 07:28:52;;;;;;;15.57;2.83;;;;;;;;;;6145343;23;20020;-57
2023/01/26 07:31:20;;;;;;;12.10;2.05;;;;;;;;;;6153900;23;20037;-64
2023/01/26 07:33:48;;;;;;;11.82;2.20;;;;;;;;;;6151383;23;20040;-63
2023/01/26 07:36:15;;;;;;;11.90;2.63;;;;;;;;;;6151721;23;20060;-64
2023/01/26 07:38:45;;;;;;;10.95;1.85;;;;;;;;;;6147289;23;20104;-63
2023/01/26 07:41:13;;;;;;;15.55;2.58;;;;;;;;;;6153474;23;20021;-62
2023/01/26 07:43:41;;;;;;;9.65;1.73;;;;;;;;;;6148846;23;20096;-64
2023/01/26 07:46:10;;;;;;;11.85;2.35;;;;;;;;;;6152445;23;20017;-63
2023/01/26 07:48:39;;;;;;;14.00;2.97;;;;;;;;;;6149365;23;20016;-64
2023/01/26 07:51:08;;;;;;;15.35;2.85;;;;;;;;;;6150260;23;20189;-64
2023/01/26 07:53:38;;;;;;;10.35;2.50;;;;;;;;;;6150766;23;20104;-64
2023/01/26 07:56:08;;;;;;;12.82;2.53;;;;;;;;;;6150518;23;20021;-63
2023/01/26 07:58:36;;;;;;;13.00;2.80;;;;;;;;;;6154519;23;20021;-63
2023/01/26 08:01:08;;;;;;;9.47;2.97;;;;;;;;;;6154115;23;20067;-63
2023/01/26 08:03:36;;;;;;;13.45;3.15;;;;;;;;;;6149192;23;20136;-64
2023/01/26 08:06:05;;;;;;;13.18;3.13;;;;;;;;;;6157412;23;20013;-63
2023/01/26 08:08:32;;;;;;;12.15;2.92;;;;;;;;;;6141483;23;20647;-60
2023/01/26 08:11:01;;;;;;;14.82;2.47;;;;;;;;;;6159327;23;20543;-64
2023/01/26 08:13:30;;;;;;;10.87;3.00;;;;;;;;;;6131725;23;20064;-63
2023/01/26 08:16:03;;;;;;;13.02;3.60;;;;;;;;;;6154817;23;20738;-63
2023/01/26 08:18:31;;;;;;;16.75;3.20;;;;;;;;;;6147894;23;20017;-64
2023/01/26 08:20:59;;;;;;;14.30;3.80;;;;;;;;;;6154949;23;20309;-64
2023/01/26 08:23:27;;;;;;;16.48;3.88;;;;;;;;;;6153338;23;20732;-63
2023/01/26 08:25:55;;;;;;;13.07;2.93;;;;;;;;;;6146447;23;20495;-64
2023/01/26 08:28:22;;;;;;;15.93;3.75;;;;;;;;;;6160091;23;20020;-64
2023/01/26 08:30:51;;;;;;;20.17;4.32;;;;;;;;;;6145512;23;20055;-64
2023/01/26 08:33:20;;;;;;;14.57;3.92;;;;;;;;;;6159766;23;20017;-64
2023/01/26 08:35:47;;;;;;;16.45;3.75;;;;;;;;;;6147910;23;20051;-64
2023/01/26 08:38:17;;;;;;;19.53;4.43;;;;;;;;;;6153818;23;20092;-66
2023/01/26 08:40:50;;;;;;;16.08;4.03;;;;;;;;;;6158708;23;20013;-64
2023/01/26 08:43:18;;;;;;;16.08;3.72;;;;;;;;;;6145344;23;20017;-64
2023/01/26 08:45:47;;;;;;;16.05;3.80;;;;;;;;;;6160790;23;20047;-64
2023/01/26 08:48:17;;;;;;;18.75;4.82;;;;;;;;;;6143190;23;20374;-65
2023/01/26 08:50:44;;;;;;;12.63;3.67;;;;;;;;;;6162802;23;20021;-64
2023/01/26 08:53:13;;;;;;;15.20;3.63;;;;;;;;;;6145179;23;20201;-65
2023/01/26 08:55:40;;;;;;;13.43;3.97;;;;;;;;;;6157603;23;20044;-64
2023/01/26 08:58:11;;;;;;;12.20;3.20;;;;;;;;;;6160606;23;20448;-66
2023/01/26 09:00:39;;;;;;;11.45;3.22;;;;;;;;;;6143790;23;20087;-65
2023/01/26 09:03:07;;;;;;;13.77;2.80;;;;;;;;;;6158738;23;20021;-64
2023/01/26 09:05:36;;;;;;;13.75;3.45;;;;;;;;;;6147556;23;20024;-64
2023/01/26 09:08:05;;;;;;;15.15;3.55;;;;;;;;;;6160493;23;20448;-64
2023/01/26 09:10:32;;;;;;;13.85;3.45;;;;;;;;;;6143012;23;20021;-60
2023/01/26 09:13:03;;;;;;;11.85;3.40;;;;;;;;;;6151888;23;20020;-67
2023/01/26 09:15:31;;;;;;;9.87;3.10;;;;;;;;;;6153601;23;20744;-64
2023/01/26 09:17:58;;;;;;;14.27;2.72;;;;;;;;;;6151119;23;20452;-66
2023/01/26 09:20:28;;;;;;;11.18;3.00;;;;;;;;;;6134913;23;20021;-65
2023/01/26 09:22:57;;;;;;;10.15;2.70;;;;;;;;;;6152906;23;20599;-64
2023/01/26 09:25:26;;;;;;;12.20;3.00;;;;;;;;;;6149914;23;20013;-65
2023/01/26 09:27:53;;;;;;;13.03;2.70;;;;;;;;;;6154159;23;20080;-65
2023/01/26 09:30:23;;;;;;;14.88;3.47;;;;;;;;;;6146837;23;20397;-64
2023/01/26 09:32:51;;;;;;;15.68;3.10;;;;;;;;;;6148097;23;20088;-65
2023/01/26 09:35:19;;;;;;;10.63;2.45;;;;;;;;;;6149566;23;20044;-65
2023/01/26 09:37:47;;;;;;;11.95;2.60;;;;;;;;;;6155094;23;20071;-64
2023/01/26 09:40:17;;;;;;;10.63;2.67;;;;;;;;;;6134815;23;20798;-64
2023/01/26 09:42:52;;;;;;;11.00;2.58;;;;;;;;;;6136243;23;20021;-65
2023/01/26 09:45:23;;;;;;;13.98;2.75;;;;;;;;;;6128066;23;20224;-63
2023/01/26 09:47:55;;;;;;;13.50;2.60;;;;;;;;;;6143603;23;20444;-64
2023/01/26 09:50:26;;;;;;;10.80;2.60;;;;;;;;;;6131919;23;20031;-64
2023/01/26 09:52:56;;;;;;;13.97;2.70;;;;;;;;;;6133706;23;20620;-65
2023/01/26 09:55:26;;;;;;;11.23;2.08;;;;;;;;;;6143099;23;20029;-64
2023/01/26 09:57:57;;;;;;;10.18;2.17;;;;;;;;;;6128951;23;20021;-65
2023/01/26 10:00:27;;;;;;;12.98;1.75;;;;;;;;;;6128425;23;20087;-65
2023/01/26 10:02:59;;;;;;;13.95;1.90;;;;;;;;;;6138811;23;20075;-64
2023/01/26 10:05:30;;;;;;;10.70;1.97;;;;;;;;;;6129227;23;20041;-64
2023/01/26 10:07:58;;;;;;;7.10;1.67;;;;;;;;;;6141406;23;20032;-63
2023/01/26 10:10:32;;;;;;;11.00;1.85;;;;;;;;;;6121146;23;20071;-65
2023/01/26 10:13:01;;;;;;;13.75;2.22;;;;;;;;;;6139478;23;20024;-65
2023/01/26 10:15:31;;;;;;;11.75;2.10;;;;;;;;;;6140979;23;20020;-64
2023/01/26 10:18:00;;;;;;;10.33;2.43;;;;;;;;;;6142977;23;20048;-64
2023/01/26 10:20:31;;;;;;;9.10;2.00;;;;;;;;;;6130926;23;20017;-63
2023/01/26 10:23:02;;;;;;;13.50;2.10;;;;;;;;;;6142551;23;20025;-65
2023/01/26 10:25:35;;;;;;;12.30;2.55;;;;;;;;;;6133174;23;20604;-64
2023/01/26 10:28:11;;;;;;;14.00;2.35;;;;;;;;;;6143966;23;20024;-65
2023/01/26 10:30:39;;;;;;;16.10;3.37;;;;;;;;;;6127628;23;20029;-64
2023/01/26 10:33:14;;;;;;;13.35;2.85;;;;;;;;;;6145510;23;20021;-65
2023/01/26 10:35:43;;;;;;;10.02;2.47;;;;;;;;;;6129665;23;20083;-64
2023/01/26 10:38:26;;;;;;;13.77;2.75;;;;;;;;;;6140947;23;20506;-65
2023/01/26 10:40:55;;;;;;;12.05;2.70;;;;;;;;;;6135311;23;20021;-64
2023/01/26 10:43:24;;;;;;;11.63;2.53;;;;;;;;;;6134556;23;20013;-63
2023/01/26 10:45:53;;;;;;;12.52;3.00;;;;;;;;;;6142917;23;20017;-65
2023/01/26 10:48:22;;;;;;;9.75;2.42;;;;;;;;;;6129747;23;20052;-65
2023/01/26 10:50:50;;;;;;;11.52;2.80;;;;;;;;;;6138334;23;20053;-65
2023/01/26 10:53:23;;;;;;;8.77;2.35;;;;;;;;;;6121650;23;20013;-65
2023/01/26 10:55:59;;;;;;;17.17;2.93;;;;;;;;;;6136750;23;20020;-66
2023/01/26 10:58:41;;;;;;;11.25;2.88;;;;;;;;;;6149715;23;20017;-64
2023/01/26 11:01:11;;;;;;;12.75;3.17;;;;;;;;;;6138072;23;20465;-65
2023/01/26 11:03:39;;;;;;;13.13;2.40;;;;;;;;;;6132096;23;20086;-64
2023/01/26 11:06:08;;;;;;;11.70;2.45;;;;;;;;;;6141312;23;20017;-64
2023/01/26 11:08:37;;;;;;;8.93;2.20;;;;;;;;;;6135308;23;20017;-64
2023/01/26 11:11:09;;;;;;;11.27;2.08;;;;;;;;;;6129455;23;20021;-64
2023/01/26 11:13:37;;;;;;;13.98;2.08;;;;;;;;;;6134368;23;20041;-63
2023/01/26 11:16:11;;;;;;;13.88;1.92;;;;;;;;;;6141772;23;20068;-64
2023/01/26 11:18:43;;;;;;;10.18;2.10;;;;;;;;;;6126227;23;20013;-65
2023/01/26 11:21:15;;;;;;;11.07;1.60;;;;;;;;;;6130939;23;20028;-65
2023/01/26 11:23:53;;;;;;;9.00;1.50;;;;;;;;;;6146047;23;20021;-64
2023/01/26 11:26:31;;;;;;;11.73;1.77;;;;;;;;;;6143497;23;20021;-64
2023/01/26 11:29:11;;;;;;;11.40;2.00;;;;;;;;;;6127675;23;20569;-64
2023/01/26 11:31:45;;;;;;;10.20;1.88;;;;;;;;;;6133008;23;20042;-65
2023/01/26 11:34:24;;;;;;;13.43;1.77;;;;;;;;;;6139508;23;20395;-64
2023/01/26 11:36:59;;;;;;;10.05;1.38;;;;;;;;;;6129912;23;20045;-63
2023/01/26 11:39:30;;;;;;;9.82;1.55;;;;;;;;;;6142783;23;20023;-65
2023/01/26 11:42:09;;;;;;;8.32;1.30;;;;;;;;;;6126594;23;20013;-65
2023/01/26 11:44:50;;;;;;;13.80;1.77;;;;;;;;;;6142528;23;20017;-64
2023/01/26 11:47:26;;;;;;;8.37;1.20;;;;;;;;;;6144300;23;20016;-64
2023/01/26 11:50:08;;;;;;;8.50;1.75;;;;;;;;;;6129133;23;20017;-66
2023/01/26 11:52:52;;;;;;;9.95;1.77;;;;;;;;;;6155620;23;20033;-65
2023/01/26 11:55:25;;;;;;;10.77;2.50;;;;;;;;;;6143778;23;20057;-65
2023/01/26 11:58:04;;;;;;;7.95;1.30;;;;;;;;;;6139661;23;20060;-65
2023/01/26 12:00:38;;;;;;;11.70;2.27;;;;;;;;;;6124647;23;20009;-64
2023/01/26 12:03:12;;;;;;;11.43;2.13;;;;;;;;;;6140326;23;20099;-65
2023/01/26 12:05:41;;;;;;;11.88;1.55;;;;;;;;;;6130494;23;20097;-64
2023/01/26 12:08:15;;;;;;;9.60;1.35;;;;;;;;;;6140455;23;20013;-65
2023/01/26 12:10:47;;;;;;;10.30;1.48;;;;;;;;;;6135088;23;20021;-65
2023/01/26 12:13:20;;;;;;;8.43;1.60;;;;;;;;;;6125638;23;20505;-62
2023/01/26 12:15:51;;;;;;;9.93;1.90;;;;;;;;;;6138303;23;20023;-66
2023/01/26 12:18:22;;;;;;;9.95;1.38;;;;;;;;;;6134804;23;20355;-65
2023/01/26 12:20:51;;;;;;;12.25;1.95;;;;;;;;;;6130968;23;20021;-65
2023/01/26 12:23:25;;;;;;;15.68;2.28;;;;;;;;;;6140728;23;20380;-64
2023/01/26 12:25:56;;;;;;;11.43;1.43;;;;;;;;;;6124088;23;20028;-66
2023/01/26 12:28:29;;;;;;;12.50;2.25;;;;;;;;;;6140073;23;20436;-66
2023/01/26 12:30:59;;;;;;;22.58;2.33;;;;;;;;;;6121873;23;20023;-65
2023/01/26 12:33:29;;;;;;;12.32;1.90;;;;;;;;;;6140887;23;20249;-65
2023/01/26 12:36:04;;;;;;;7.97;1.48;;;;;;;;;;6132677;23;20017;-66
2023/01/26 12:38:39;;;;;;;11.10;1.40;;;;;;;;;;6137192;23;20028;-65
2023/01/26 12:41:10;;;;;;;8.73;1.20;;;;;;;;;;6127216;23;20218;-65
2023/01/26 12:43:46;;;;;;;9.68;1.92;;;;;;;;;;6142033;23;20096;-65
2023/01/26 12:46:15;;;;;;;6.10;1.02;;;;;;;;;;6133203;23;20021;-63
2023/01/26 12:48:46;;;;;;;10.35;1.77;;;;;;;;;;6139227;23;20013;-64
2023/01/26 12:51:18;;;;;;;10.20;1.53;;;;;;;;;;6131764;23;20348;-63
2023/01/26 12:53:49;;;;;;;15.25;1.90;;;;;;;;;;6142984;23;20028;-63
2023/01/26 12:56:21;;;;;;;8.68;1.73;;;;;;;;;;6132210;23;20092;-64
2023/01/26 12:58:52;;;;;;;8.75;1.30;;;;;;;;;;6143588;23;20443;-63
2023/01/26 13:01:21;;;;;;;10.68;1.00;;;;;;;;;;6136066;23;20041;-63
2023/01/26 13:03:54;;;;;;;9.90;1.10;;;;;;;;;;6134587;23;20471;-64
2023/01/26 13:06:23;;;;;;;13.82;1.85;;;;;;;;;;6117715;23;20449;-63
2023/01/26 13:09:02;;;;;;;10.75;2.38;;;;;;;;;;6112562;23;20385;-66
2023/01/26 13:11:44;;;;;;;8.23;1.92;;;;;;;;;;6104660;23;20009;-65
2023/01/26 13:14:42;;;;;;;10.20;1.95;;;;;;;;;;6129367;23;20550;-64
2023/01/26 13:17:28;;;;;;;6.20;1.37;;;;;;;;;;6073616;23;20121;-64
2023/01/26 13:19:58;;;;;;;9.68;1.90;;;;;;;;;;6122399;23;20032;-65
2023/01/26 13:22:40;;;;;;;11.85;2.22;;;;;;;;;;6134911;23;20113;-65
2023/01/26 13:25:13;;;;;;;10.18;1.60;;;;;;;;;;6131051;23;20080;-65
2023/01/26 13:27:43;;;;;;;7.85;1.52;;;;;;;;;;6121106;23;20087;-65
2023/01/26 13:30:33;;;;;;;10.97;1.70;;;;;;;;;;6134902;23;20028;-64
2023/01/26 13:33:03;;;;;;;8.15;1.33;;;;;;;;;;6152626;23;20306;-63
2023/01/26 13:35:33;;;;;;;5.35;1.00;;;;;;;;;;6139358;23;20016;-64
2023/01/26 13:38:04;;;;;;;11.90;1.80;;;;;;;;;;6135670;23;20032;-63
2023/01/26 13:40:34;;;;;;;8.75;1.60;;;;;;;;;;6124095;23;20017;-63
2023/01/26 13:43:06;;;;;;;11.73;1.40;;;;;;;;;;6118321;23;20020;-63
2023/01/26 13:45:56;;;;;;;7.15;1.25;;;;;;;;;;6123862;23;20017;-64
2023/01/26 13:48:32;;;;;;;8.10;1.20;;;;;;;;;;6130915;23;20630;-64
2023/01/26 13:51:03;;;;;;;9.65;1.25;;;;;;;;;;6131941;23;20083;-65
2023/01/26 13:53:35;;;;;;;10.18;1.40;;;;;;;;;;6157523;23;20035;-65
2023/01/26 13:56:05;;;;;;;8.23;0.90;;;;;;;;;;6137970;23;20543;-65
2023/01/26 13:58:34;;;;;;;6.78;1.35;;;;;;;;;;6143708;23;20021;-64
2023/01/26 14:01:04;;;;;;;6.80;1.25;;;;;;;;;;6131291;23;20021;-65
2023/01/26 14:03:32;;;;;;;7.03;1.38;;;;;;;;;;6130950;23;20013;-63
2023/01/26 14:06:03;;;;;;;9.30;1.63;;;;;;;;;;6140083;23;20021;-63
2023/01/26 14:08:33;;;;;;;9.17;1.93;;;;;;;;;;6129442;23;20435;-63
2023/01/26 14:11:02;;;;;;;9.27;1.80;;;;;;;;;;6131046;23;20013;-63
2023/01/26 14:13:32;;;;;;;9.10;1.63;;;;;;;;;;6121355;23;20135;-63
2023/01/26 14:16:00;;;;;;;9.05;1.70;;;;;;;;;;6135971;23;20021;-63
2023/01/26 14:18:28;;;;;;;8.20;1.92;;;;;;;;;;6129307;23;20017;-62
2023/01/26 14:21:00;;;;;;;7.17;1.33;;;;;;;;;;6128176;23;20091;-64
2023/01/26 14:23:29;;;;;;;10.10;2.15;;;;;;;;;;6136430;23;20021;-65
2023/01/26 14:26:00;;;;;;;11.05;1.63;;;;;;;;;;6127852;23;20028;-63
2023/01/26 14:28:29;;;;;;;9.52;1.70;;;;;;;;;;6141331;23;20017;-63
2023/01/26 14:30:59;;;;;;;9.45;1.45;;;;;;;;;;6120252;23;20021;-63
2023/01/26 14:33:31;;;;;;;10.87;1.50;;;;;;;;;;6134568;23;20199;-63
2023/01/26 14:36:00;;;;;;;8.90;1.20;;;;;;;;;;6140342;23;20107;-64
2023/01/26 14:38:28;;;;;;;9.88;0.98;;;;;;;;;;6137335;23;20024;-63
2023/01/26 14:40:58;;;;;;;5.72;0.75;;;;;;;;;;6126539;23;20021;-63
2023/01/26 14:43:27;;;;;;;8.90;1.00;;;;;;;;;;6139414;23;20719;-63
2023/01/26 14:45:57;;;;;;;7.50;1.10;;;;;;;;;;6139756;23;20020;-64
2023/01/26 14:48:28;;;;;;;6.40;1.08;;;;;;;;;;6137935;23;20016;-63
2023/01/26 14:50:56;;;;;;;9.07;1.00;;;;;;;;;;6102151;23;20044;-63
2023/01/26 14:53:25;;;;;;;10.63;1.83;;;;;;;;;;6148147;23;20321;-64
2023/01/26 14:55:53;;;;;;;9.25;1.58;;;;;;;;;;6155858;23;20108;-61
2023/01/26 14:58:23;;;;;;;7.40;1.30;;;;;;;;;;6160078;23;20021;-63
2023/01/26 15:00:53;;;;;;;7.25;1.30;;;;;;;;;;6144779;23;20021;-70
2023/01/26 15:03:24;;;;;;;8.15;1.38;;;;;;;;;;6158832;23;20017;-64
2023/01/26 15:06:03;;;;;;;10.10;1.50;;;;;;;;;;6147845;23;20454;-64
2023/01/26 15:08:31;;;;;;;11.75;1.55;;;;;;;;;;6154345;23;20020;-65
2023/01/26 15:13:52;;;;;;;11.07;1.83;;;;;;;;;;6151068;23;20024;-64
2023/01/26 15:16:22;;;;;;;9.02;1.70;;;;;;;;;;6155227;23;20403;-64
2023/01/26 15:18:57;;;;;;;10.95;2.13;;;;;;;;;;6147234;23;20021;-64
2023/01/26 15:21:31;;;;;;;8.13;1.50;;;;;;;;;;6152562;23;20017;-64
2023/01/26 15:23:59;;;;;;;10.60;1.40;;;;;;;;;;6156139;23;20016;-65
2023/01/26 15:26:28;;;;;;;12.85;2.22;;;;;;;;;;6133834;23;20100;-65
2023/01/26 15:28:58;;;;;;;6.90;1.40;;;;;;;;;;6155561;23;20017;-63
2023/01/26 15:31:29;;;;;;;7.53;1.30;;;;;;;;;;6150737;23;20017;-64
2023/01/26 15:34:00;;;;;;;8.48;1.20;;;;;;;;;;6157480;23;20112;-65
2023/01/26 15:36:29;;;;;;;11.50;1.47;;;;;;;;;;6153145;23;20021;-65
2023/01/26 15:38:59;;;;;;;9.70;1.48;;;;;;;;;;6153302;23;20017;-64